sensor_id;sensor_type;location;lat;lon;timestamp;P1;durP1;ratioP1;P2;durP2;ratioP2
72115;SDS011;59991;52.140;5.428;2023-05-07T00:00:11;7.20;;;6.55;;
72115;SDS011;59991;52.140;5.428;2023-05-07T00:00:46;6.67;;;5.93;;
72115;SDS011;59991;52.140;5.428;2023-05-07T00:01:17;7.47;;;6.80;;
72115;SDS011;59991;52.140;5.428;2023-05-07T00:01:50;6.43;;;5.93;;
72115;SDS011;59991;52.140;5.428;2023-05-07T00:02:21;9.10;;;6.45;;
72115;SDS011;59991;52.140;5.428;2023-05-07T00:02:53;6.95;;;6.45;;
72115;SDS011;59991;52.140;5.428;2023-05-07T00:03:25;7.03;;;6.10;;
72115;SDS011;59991;52.140;5.428;2023-05-07T00:03:57;6.20;;;5.65;;
72115;SDS011;59991;52.140;5.428;2023-05-07T00:04:29;7.10;;;6.50;;
72115;SDS011;59991;52.140;5.428;2023-05-07T00:05:07;7.60;;;6.88;;
72115;SDS011;59991;52.140;5.428;2023-05-07T00:05:39;6.65;;;6.05;;
72115;SDS011;59991;52.140;5.428;2023-05-07T00:06:11;7.20;;;6.50;;
72115;SDS011;59991;52.140;5.428;2023-05-07T00:06:43;7.35;;;6.50;;
72115;SDS011;59991;52.140;5.428;2023-05-07T00:07:15;6.47;;;5.97;;
72115;SDS011;59991;52.140;5.428;2023-05-07T00:07:47;8.30;;;6.70;;
72115;SDS011;59991;52.140;5.428;2023-05-07T00:08:19;8.10;;;7.40;;
72115;SDS011;59991;52.140;5.428;2023-05-07T00:08:51;7.30;;;6.80;;
72115;SDS011;59991;52.140;5.428;2023-05-07T00:09:23;7.13;;;6.40;;
72115;SDS011;59991;52.140;5.428;2023-05-07T00:09:54;7.00;;;6.40;;
72115;SDS011;59991;52.140;5.428;2023-05-07T00:10:25;7.85;;;6.88;;
72115;SDS011;59991;52.140;5.428;2023-05-07T00:10:57;7.50;;;6.70;;
72115;SDS011;59991;52.140;5.428;2023-05-07T00:11:28;6.73;;;6.13;;
72115;SDS011;59991;52.140;5.428;2023-05-07T00:12:00;9.30;;;6.68;;
72115;SDS011;59991;52.140;5.428;2023-05-07T00:12:32;7.85;;;6.57;;
72115;SDS011;59991;52.140;5.428;2023-05-07T00:13:06;7.75;;;6.90;;
72115;SDS011;59991;52.140;5.428;2023-05-07T00:13:38;7.40;;;6.78;;
72115;SDS011;59991;52.140;5.428;2023-05-07T00:14:09;7.05;;;6.40;;
72115;SDS011;59991;52.140;5.428;2023-05-07T00:14:41;6.65;;;6.05;;
72115;SDS011;59991;52.140;5.428;2023-05-07T00:15:12;7.13;;;6.40;;
72115;SDS011;59991;52.140;5.428;2023-05-07T00:15:44;6.95;;;6.43;;
72115;SDS011;59991;52.140;5.428;2023-05-07T00:16:15;5.93;;;5.43;;
72115;SDS011;59991;52.140;5.428;2023-05-07T00:16:47;7.30;;;6.60;;
72115;SDS011;59991;52.140;5.428;2023-05-07T00:17:18;8.00;;;6.32;;
72115;SDS011;59991;52.140;5.428;2023-05-07T00:17:50;7.70;;;6.07;;
72115;SDS011;59991;52.140;5.428;2023-05-07T00:18:22;7.03;;;6.43;;
72115;SDS011;59991;52.140;5.428;2023-05-07T00:18:53;6.63;;;6.07;;
72115;SDS011;59991;52.140;5.428;2023-05-07T00:19:25;6.82;;;6.32;;
72115;SDS011;59991;52.140;5.428;2023-05-07T00:19:56;6.43;;;5.82;;
72115;SDS011;59991;52.140;5.428;2023-05-07T00:20:28;7.07;;;6.43;;
72115;SDS011;59991;52.140;5.428;2023-05-07T00:20:59;6.90;;;6.25;;
72115;SDS011;59991;52.140;5.428;2023-05-07T00:21:30;6.32;;;5.78;;
72115;SDS011;59991;52.140;5.428;2023-05-07T00:22:02;6.37;;;5.77;;
72115;SDS011;59991;52.140;5.428;2023-05-07T00:22:34;7.05;;;6.40;;
72115;SDS011;59991;52.140;5.428;2023-05-07T00:23:05;6.55;;;5.97;;
72115;SDS011;59991;52.140;5.428;2023-05-07T00:23:37;7.18;;;6.57;;
72115;SDS011;59991;52.140;5.428;2023-05-07T00:24:08;9.88;;;5.97;;
72115;SDS011;59991;52.140;5.428;2023-05-07T00:24:39;6.25;;;5.75;;
72115;SDS011;59991;52.140;5.428;2023-05-07T00:25:11;6.55;;;5.90;;
72115;SDS011;59991;52.140;5.428;2023-05-07T00:25:42;6.53;;;5.90;;
72115;SDS011;59991;52.140;5.428;2023-05-07T00:26:14;6.85;;;6.15;;
72115;SDS011;59991;52.140;5.428;2023-05-07T00:26:45;6.65;;;6.05;;
72115;SDS011;59991;52.140;5.428;2023-05-07T00:27:16;5.47;;;4.90;;
72115;SDS011;59991;52.140;5.428;2023-05-07T00:27:48;6.75;;;5.78;;
72115;SDS011;59991;52.140;5.428;2023-05-07T00:28:19;9.05;;;6.53;;
72115;SDS011;59991;52.140;5.428;2023-05-07T00:28:51;8.05;;;7.13;;
72115;SDS011;59991;52.140;5.428;2023-05-07T00:29:22;6.10;;;5.53;;
72115;SDS011;59991;52.140;5.428;2023-05-07T00:29:54;7.93;;;6.80;;
72115;SDS011;59991;52.140;5.428;2023-05-07T00:30:25;7.72;;;6.93;;
72115;SDS011;59991;52.140;5.428;2023-05-07T00:30:56;7.13;;;6.50;;
72115;SDS011;59991;52.140;5.428;2023-05-07T00:31:28;6.93;;;6.38;;
72115;SDS011;59991;52.140;5.428;2023-05-07T00:31:59;6.43;;;5.93;;
72115;SDS011;59991;52.140;5.428;2023-05-07T00:32:31;5.80;;;5.30;;
72115;SDS011;59991;52.140;5.428;2023-05-07T00:33:03;6.53;;;5.90;;
72115;SDS011;59991;52.140;5.428;2023-05-07T00:33:34;6.80;;;6.18;;
72115;SDS011;59991;52.140;5.428;2023-05-07T00:34:05;6.63;;;6.05;;
72115;SDS011;59991;52.140;5.428;2023-05-07T00:34:37;6.47;;;5.88;;
72115;SDS011;59991;52.140;5.428;2023-05-07T00:35:10;7.18;;;6.47;;
72115;SDS011;59991;52.140;5.428;2023-05-07T00:35:42;5.93;;;5.38;;
72115;SDS011;59991;52.140;5.428;2023-05-07T00:36:14;6.32;;;5.82;;
72115;SDS011;59991;52.140;5.428;2023-05-07T00:36:45;6.72;;;6.00;;
72115;SDS011;59991;52.140;5.428;2023-05-07T00:37:17;7.63;;;5.15;;
72115;SDS011;59991;52.140;5.428;2023-05-07T00:37:48;5.20;;;4.80;;
72115;SDS011;59991;52.140;5.428;2023-05-07T00:38:20;6.05;;;5.65;;
72115;SDS011;59991;52.140;5.428;2023-05-07T00:38:53;6.05;;;5.55;;
72115;SDS011;59991;52.140;5.428;2023-05-07T00:39:25;6.97;;;6.32;;
72115;SDS011;59991;52.140;5.428;2023-05-07T00:39:56;5.88;;;5.25;;
72115;SDS011;59991;52.140;5.428;2023-05-07T00:40:28;6.18;;;5.68;;
72115;SDS011;59991;52.140;5.428;2023-05-07T00:40:59;8.02;;;6.40;;
72115;SDS011;59991;52.140;5.428;2023-05-07T00:41:30;6.82;;;6.22;;
72115;SDS011;59991;52.140;5.428;2023-05-07T00:42:02;6.50;;;5.85;;
72115;SDS011;59991;52.140;5.428;2023-05-07T00:42:33;6.25;;;5.75;;
72115;SDS011;59991;52.140;5.428;2023-05-07T00:43:05;6.27;;;5.77;;
72115;SDS011;59991;52.140;5.428;2023-05-07T00:43:37;6.53;;;5.93;;
72115;SDS011;59991;52.140;5.428;2023-05-07T00:44:09;6.70;;;6.10;;
72115;SDS011;59991;52.140;5.428;2023-05-07T00:44:41;6.68;;;6.07;;
72115;SDS011;59991;52.140;5.428;2023-05-07T00:45:13;6.68;;;5.55;;
72115;SDS011;59991;52.140;5.428;2023-05-07T00:45:46;6.13;;;5.45;;
72115;SDS011;59991;52.140;5.428;2023-05-07T00:46:18;6.85;;;5.32;;
72115;SDS011;59991;52.140;5.428;2023-05-07T00:46:52;6.15;;;5.65;;
72115;SDS011;59991;52.140;5.428;2023-05-07T00:47:25;6.50;;;6.00;;
72115;SDS011;59991;52.140;5.428;2023-05-07T00:47:57;6.15;;;5.57;;
72115;SDS011;59991;52.140;5.428;2023-05-07T00:48:30;7.33;;;6.03;;
72115;SDS011;59991;52.140;5.428;2023-05-07T00:49:03;8.27;;;6.45;;
72115;SDS011;59991;52.140;5.428;2023-05-07T00:49:39;7.45;;;6.75;;
72115;SDS011;59991;52.140;5.428;2023-05-07T00:50:13;7.50;;;6.45;;
72115;SDS011;59991;52.140;5.428;2023-05-07T00:50:45;7.03;;;6.53;;
72115;SDS011;59991;52.140;5.428;2023-05-07T00:51:18;6.35;;;5.85;;
72115;SDS011;59991;52.140;5.428;2023-05-07T00:51:49;6.85;;;6.10;;
72115;SDS011;59991;52.140;5.428;2023-05-07T00:52:21;8.15;;;6.00;;
72115;SDS011;59991;52.140;5.428;2023-05-07T00:52:56;7.20;;;6.60;;
72115;SDS011;59991;52.140;5.428;2023-05-07T00:53:28;7.22;;;6.22;;
72115;SDS011;59991;52.140;5.428;2023-05-07T00:54:02;6.73;;;6.13;;
72115;SDS011;59991;52.140;5.428;2023-05-07T00:54:34;6.53;;;5.93;;
72115;SDS011;59991;52.140;5.428;2023-05-07T00:55:06;6.60;;;5.90;;
72115;SDS011;59991;52.140;5.428;2023-05-07T00:55:39;6.55;;;6.05;;
72115;SDS011;59991;52.140;5.428;2023-05-07T00:56:10;7.07;;;6.55;;
72115;SDS011;59991;52.140;5.428;2023-05-07T00:56:42;10.43;;;6.43;;
72115;SDS011;59991;52.140;5.428;2023-05-07T00:57:16;8.18;;;6.55;;
72115;SDS011;59991;52.140;5.428;2023-05-07T00:57:47;7.75;;;6.20;;
72115;SDS011;59991;52.140;5.428;2023-05-07T00:58:19;6.82;;;6.22;;
72115;SDS011;59991;52.140;5.428;2023-05-07T00:58:51;6.63;;;6.03;;
72115;SDS011;59991;52.140;5.428;2023-05-07T00:59:23;6.07;;;5.53;;
72115;SDS011;59991;52.140;5.428;2023-05-07T00:59:54;6.95;;;6.15;;
72115;SDS011;59991;52.140;5.428;2023-05-07T01:00:26;7.22;;;6.57;;
72115;SDS011;59991;52.140;5.428;2023-05-07T01:00:58;6.97;;;6.47;;
72115;SDS011;59991;52.140;5.428;2023-05-07T01:01:29;7.60;;;6.93;;
72115;SDS011;59991;52.140;5.428;2023-05-07T01:02:02;6.30;;;5.70;;
72115;SDS011;59991;52.140;5.428;2023-05-07T01:02:34;6.68;;;6.10;;
72115;SDS011;59991;52.140;5.428;2023-05-07T01:03:06;7.85;;;7.25;;
72115;SDS011;59991;52.140;5.428;2023-05-07T01:03:39;7.20;;;6.55;;
72115;SDS011;59991;52.140;5.428;2023-05-07T01:04:11;6.40;;;5.80;;
72115;SDS011;59991;52.140;5.428;2023-05-07T01:04:43;6.90;;;6.27;;
72115;SDS011;59991;52.140;5.428;2023-05-07T01:05:15;7.07;;;6.38;;
72115;SDS011;59991;52.140;5.428;2023-05-07T01:05:50;6.50;;;5.90;;
72115;SDS011;59991;52.140;5.428;2023-05-07T01:06:24;7.10;;;6.50;;
72115;SDS011;59991;52.140;5.428;2023-05-07T01:06:59;6.97;;;6.28;;
72115;SDS011;59991;52.140;5.428;2023-05-07T01:07:33;7.00;;;6.40;;
72115;SDS011;59991;52.140;5.428;2023-05-07T01:08:06;6.53;;;6.03;;
72115;SDS011;59991;52.140;5.428;2023-05-07T01:08:39;7.80;;;6.60;;
72115;SDS011;59991;52.140;5.428;2023-05-07T01:09:11;7.40;;;6.63;;
72115;SDS011;59991;52.140;5.428;2023-05-07T01:09:43;7.03;;;6.22;;
72115;SDS011;59991;52.140;5.428;2023-05-07T01:10:15;7.63;;;6.47;;
72115;SDS011;59991;52.140;5.428;2023-05-07T01:10:48;6.75;;;6.15;;
72115;SDS011;59991;52.140;5.428;2023-05-07T01:11:19;6.80;;;6.30;;
72115;SDS011;59991;52.140;5.428;2023-05-07T01:11:52;7.32;;;6.63;;
72115;SDS011;59991;52.140;5.428;2023-05-07T01:12:25;7.43;;;6.50;;
72115;SDS011;59991;52.140;5.428;2023-05-07T01:12:58;8.02;;;7.28;;
72115;SDS011;59991;52.140;5.428;2023-05-07T01:13:31;7.47;;;6.88;;
72115;SDS011;59991;52.140;5.428;2023-05-07T01:14:04;6.90;;;6.30;;
72115;SDS011;59991;52.140;5.428;2023-05-07T01:14:36;7.90;;;6.35;;
72115;SDS011;59991;52.140;5.428;2023-05-07T01:15:08;7.25;;;6.65;;
72115;SDS011;59991;52.140;5.428;2023-05-07T01:15:40;6.73;;;6.20;;
72115;SDS011;59991;52.140;5.428;2023-05-07T01:16:12;7.22;;;6.28;;
72115;SDS011;59991;52.140;5.428;2023-05-07T01:16:44;6.88;;;6.28;;
72115;SDS011;59991;52.140;5.428;2023-05-07T01:17:16;7.30;;;6.70;;
72115;SDS011;59991;52.140;5.428;2023-05-07T01:17:48;7.78;;;6.53;;
72115;SDS011;59991;52.140;5.428;2023-05-07T01:18:19;7.32;;;5.93;;
72115;SDS011;59991;52.140;5.428;2023-05-07T01:18:51;6.68;;;6.05;;
72115;SDS011;59991;52.140;5.428;2023-05-07T01:19:22;10.02;;;6.80;;
72115;SDS011;59991;52.140;5.428;2023-05-07T01:19:54;6.95;;;6.45;;
72115;SDS011;59991;52.140;5.428;2023-05-07T01:20:25;6.25;;;5.65;;
72115;SDS011;59991;52.140;5.428;2023-05-07T01:20:59;6.37;;;5.87;;
72115;SDS011;59991;52.140;5.428;2023-05-07T01:21:33;7.35;;;6.60;;
72115;SDS011;59991;52.140;5.428;2023-05-07T01:22:09;8.18;;;6.68;;
72115;SDS011;59991;52.140;5.428;2023-05-07T01:22:42;7.07;;;6.38;;
72115;SDS011;59991;52.140;5.428;2023-05-07T01:23:14;6.53;;;6.03;;
72115;SDS011;59991;52.140;5.428;2023-05-07T01:23:46;6.50;;;6.10;;
72115;SDS011;59991;52.140;5.428;2023-05-07T01:24:18;7.03;;;6.40;;
72115;SDS011;59991;52.140;5.428;2023-05-07T01:24:49;6.90;;;6.30;;
72115;SDS011;59991;52.140;5.428;2023-05-07T01:25:21;6.95;;;6.28;;
72115;SDS011;59991;52.140;5.428;2023-05-07T01:25:53;7.30;;;6.70;;
72115;SDS011;59991;52.140;5.428;2023-05-07T01:26:25;7.33;;;6.63;;
72115;SDS011;59991;52.140;5.428;2023-05-07T01:26:57;6.85;;;6.25;;
72115;SDS011;59991;52.140;5.428;2023-05-07T01:27:28;7.93;;;7.18;;
72115;SDS011;59991;52.140;5.428;2023-05-07T01:28:00;7.20;;;6.13;;
72115;SDS011;59991;52.140;5.428;2023-05-07T01:28:32;7.18;;;6.68;;
72115;SDS011;59991;52.140;5.428;2023-05-07T01:29:03;7.22;;;6.53;;
72115;SDS011;59991;52.140;5.428;2023-05-07T01:29:35;6.70;;;6.03;;
72115;SDS011;59991;52.140;5.428;2023-05-07T01:30:06;7.38;;;6.78;;
72115;SDS011;59991;52.140;5.428;2023-05-07T01:30:39;7.07;;;6.38;;
72115;SDS011;59991;52.140;5.428;2023-05-07T01:31:15;7.18;;;6.50;;
72115;SDS011;59991;52.140;5.428;2023-05-07T01:31:48;6.60;;;6.00;;
72115;SDS011;59991;52.140;5.428;2023-05-07T01:32:24;6.68;;;6.18;;
72115;SDS011;59991;52.140;5.428;2023-05-07T01:33:04;7.43;;;6.57;;
72115;SDS011;59991;52.140;5.428;2023-05-07T01:33:40;7.13;;;6.40;;
72115;SDS011;59991;52.140;5.428;2023-05-07T01:34:12;7.07;;;6.57;;
72115;SDS011;59991;52.140;5.428;2023-05-07T01:34:46;8.10;;;6.90;;
72115;SDS011;59991;52.140;5.428;2023-05-07T01:35:30;9.27;;;7.20;;
72115;SDS011;59991;52.140;5.428;2023-05-07T01:36:05;7.20;;;6.50;;
72115;SDS011;59991;52.140;5.428;2023-05-07T01:36:39;8.38;;;6.47;;
72115;SDS011;59991;52.140;5.428;2023-05-07T01:37:14;6.40;;;5.90;;
72115;SDS011;59991;52.140;5.428;2023-05-07T01:37:46;8.03;;;6.30;;
72115;SDS011;59991;52.140;5.428;2023-05-07T01:38:19;7.38;;;6.68;;
72115;SDS011;59991;52.140;5.428;2023-05-07T01:38:52;7.28;;;6.53;;
72115;SDS011;59991;52.140;5.428;2023-05-07T01:39:24;7.38;;;6.78;;
72115;SDS011;59991;52.140;5.428;2023-05-07T01:39:56;6.97;;;6.28;;
72115;SDS011;59991;52.140;5.428;2023-05-07T01:40:28;8.70;;;6.40;;
72115;SDS011;59991;52.140;5.428;2023-05-07T01:41:00;6.28;;;5.88;;
72115;SDS011;59991;52.140;5.428;2023-05-07T01:41:32;6.75;;;6.15;;
72115;SDS011;59991;52.140;5.428;2023-05-07T01:42:03;7.78;;;7.07;;
72115;SDS011;59991;52.140;5.428;2023-05-07T01:42:35;6.47;;;5.88;;
72115;SDS011;59991;52.140;5.428;2023-05-07T01:43:07;6.83;;;6.23;;
72115;SDS011;59991;52.140;5.428;2023-05-07T01:43:40;6.90;;;6.20;;
72115;SDS011;59991;52.140;5.428;2023-05-07T01:44:13;6.70;;;6.20;;
72115;SDS011;59991;52.140;5.428;2023-05-07T01:44:45;12.88;;;7.15;;
72115;SDS011;59991;52.140;5.428;2023-05-07T01:45:17;7.35;;;6.75;;
72115;SDS011;59991;52.140;5.428;2023-05-07T01:45:48;7.25;;;6.22;;
72115;SDS011;59991;52.140;5.428;2023-05-07T01:46:20;7.72;;;7.00;;
72115;SDS011;59991;52.140;5.428;2023-05-07T01:46:52;7.57;;;7.00;;
72115;SDS011;59991;52.140;5.428;2023-05-07T01:47:25;8.82;;;6.78;;
72115;SDS011;59991;52.140;5.428;2023-05-07T01:47:57;7.28;;;6.55;;
72115;SDS011;59991;52.140;5.428;2023-05-07T01:48:30;7.27;;;6.67;;
72115;SDS011;59991;52.140;5.428;2023-05-07T01:49:03;6.68;;;6.18;;
72115;SDS011;59991;52.140;5.428;2023-05-07T01:49:34;7.57;;;6.90;;
72115;SDS011;59991;52.140;5.428;2023-05-07T01:50:06;7.15;;;6.45;;
72115;SDS011;59991;52.140;5.428;2023-05-07T01:50:42;8.85;;;7.15;;
72115;SDS011;59991;52.140;5.428;2023-05-07T01:51:15;7.53;;;6.82;;
72115;SDS011;59991;52.140;5.428;2023-05-07T01:51:47;7.25;;;6.55;;
72115;SDS011;59991;52.140;5.428;2023-05-07T01:52:19;7.50;;;6.80;;
72115;SDS011;59991;52.140;5.428;2023-05-07T01:52:51;6.80;;;6.30;;
72115;SDS011;59991;52.140;5.428;2023-05-07T01:53:23;7.38;;;6.78;;
72115;SDS011;59991;52.140;5.428;2023-05-07T01:53:54;7.53;;;6.83;;
72115;SDS011;59991;52.140;5.428;2023-05-07T01:54:26;7.65;;;7.05;;
72115;SDS011;59991;52.140;5.428;2023-05-07T01:55:01;7.05;;;6.43;;
72115;SDS011;59991;52.140;5.428;2023-05-07T01:55:33;7.97;;;7.38;;
72115;SDS011;59991;52.140;5.428;2023-05-07T01:56:04;7.35;;;6.72;;
72115;SDS011;59991;52.140;5.428;2023-05-07T01:56:36;6.70;;;6.10;;
72115;SDS011;59991;52.140;5.428;2023-05-07T01:57:07;8.00;;;7.20;;
72115;SDS011;59991;52.140;5.428;2023-05-07T01:57:39;7.88;;;7.22;;
72115;SDS011;59991;52.140;5.428;2023-05-07T01:58:11;7.72;;;7.15;;
72115;SDS011;59991;52.140;5.428;2023-05-07T01:58:42;7.00;;;6.50;;
72115;SDS011;59991;52.140;5.428;2023-05-07T01:59:14;7.70;;;6.90;;
72115;SDS011;59991;52.140;5.428;2023-05-07T01:59:45;7.40;;;6.80;;
72115;SDS011;59991;52.140;5.428;2023-05-07T02:00:17;7.45;;;6.85;;
72115;SDS011;59991;52.140;5.428;2023-05-07T02:00:50;7.70;;;7.10;;
72115;SDS011;59991;52.140;5.428;2023-05-07T02:01:21;6.72;;;6.05;;
72115;SDS011;59991;52.140;5.428;2023-05-07T02:01:53;7.43;;;6.78;;
72115;SDS011;59991;52.140;5.428;2023-05-07T02:02:25;6.75;;;6.15;;
72115;SDS011;59991;52.140;5.428;2023-05-07T02:02:56;7.63;;;6.93;;
72115;SDS011;59991;52.140;5.428;2023-05-07T02:03:28;7.20;;;6.63;;
72115;SDS011;59991;52.140;5.428;2023-05-07T02:04:00;7.22;;;6.63;;
72115;SDS011;59991;52.140;5.428;2023-05-07T02:04:32;7.30;;;6.60;;
72115;SDS011;59991;52.140;5.428;2023-05-07T02:05:03;6.97;;;6.40;;
72115;SDS011;59991;52.140;5.428;2023-05-07T02:05:35;7.22;;;6.40;;
72115;SDS011;59991;52.140;5.428;2023-05-07T02:06:07;7.97;;;7.30;;
72115;SDS011;59991;52.140;5.428;2023-05-07T02:06:38;7.30;;;6.65;;
72115;SDS011;59991;52.140;5.428;2023-05-07T02:07:10;7.47;;;6.88;;
72115;SDS011;59991;52.140;5.428;2023-05-07T02:07:41;7.40;;;6.80;;
72115;SDS011;59991;52.140;5.428;2023-05-07T02:08:13;7.70;;;7.00;;
72115;SDS011;59991;52.140;5.428;2023-05-07T02:08:44;7.07;;;6.57;;
72115;SDS011;59991;52.140;5.428;2023-05-07T02:09:16;6.68;;;6.18;;
72115;SDS011;59991;52.140;5.428;2023-05-07T02:09:49;7.03;;;6.40;;
72115;SDS011;59991;52.140;5.428;2023-05-07T02:10:20;6.72;;;6.20;;
72115;SDS011;59991;52.140;5.428;2023-05-07T02:10:51;6.40;;;5.90;;
72115;SDS011;59991;52.140;5.428;2023-05-07T02:11:24;7.05;;;6.35;;
72115;SDS011;59991;52.140;5.428;2023-05-07T02:11:56;7.35;;;6.75;;
72115;SDS011;59991;52.140;5.428;2023-05-07T02:12:27;6.40;;;5.80;;
72115;SDS011;59991;52.140;5.428;2023-05-07T02:12:59;7.65;;;7.07;;
72115;SDS011;59991;52.140;5.428;2023-05-07T02:13:33;8.60;;;7.78;;
72115;SDS011;59991;52.140;5.428;2023-05-07T02:14:08;8.10;;;7.38;;
72115;SDS011;59991;52.140;5.428;2023-05-07T02:14:39;7.22;;;6.63;;
72115;SDS011;59991;52.140;5.428;2023-05-07T02:15:10;7.27;;;6.57;;
72115;SDS011;59991;52.140;5.428;2023-05-07T02:15:42;7.40;;;6.53;;
72115;SDS011;59991;52.140;5.428;2023-05-07T02:16:13;7.07;;;6.38;;
72115;SDS011;59991;52.140;5.428;2023-05-07T02:16:45;6.57;;;6.10;;
72115;SDS011;59991;52.140;5.428;2023-05-07T02:17:17;8.20;;;7.50;;
72115;SDS011;59991;52.140;5.428;2023-05-07T02:17:58;7.68;;;6.97;;
72115;SDS011;59991;52.140;5.428;2023-05-07T02:18:31;7.57;;;7.00;;
72115;SDS011;59991;52.140;5.428;2023-05-07T02:19:03;8.05;;;7.45;;
72115;SDS011;59991;52.140;5.428;2023-05-07T02:19:34;7.38;;;6.88;;
72115;SDS011;59991;52.140;5.428;2023-05-07T02:20:06;8.10;;;7.40;;
72115;SDS011;59991;52.140;5.428;2023-05-07T02:20:44;7.70;;;7.10;;
72115;SDS011;59991;52.140;5.428;2023-05-07T02:21:15;9.40;;;8.57;;
72115;SDS011;59991;52.140;5.428;2023-05-07T02:21:47;8.05;;;7.22;;
72115;SDS011;59991;52.140;5.428;2023-05-07T02:22:19;9.98;;;6.60;;
72115;SDS011;59991;52.140;5.428;2023-05-07T02:22:50;7.93;;;7.03;;
72115;SDS011;59991;52.140;5.428;2023-05-07T02:23:21;9.23;;;6.70;;
72115;SDS011;59991;52.140;5.428;2023-05-07T02:23:53;8.48;;;7.63;;
72115;SDS011;59991;52.140;5.428;2023-05-07T02:24:24;8.20;;;7.38;;
72115;SDS011;59991;52.140;5.428;2023-05-07T02:24:56;8.10;;;6.97;;
72115;SDS011;59991;52.140;5.428;2023-05-07T02:25:27;7.45;;;6.85;;
72115;SDS011;59991;52.140;5.428;2023-05-07T02:25:58;8.13;;;7.43;;
72115;SDS011;59991;52.140;5.428;2023-05-07T02:26:30;7.13;;;6.63;;
72115;SDS011;59991;52.140;5.428;2023-05-07T02:27:01;8.05;;;7.45;;
72115;SDS011;59991;52.140;5.428;2023-05-07T02:27:34;9.23;;;7.88;;
72115;SDS011;59991;52.140;5.428;2023-05-07T02:28:05;8.27;;;7.57;;
72115;SDS011;59991;52.140;5.428;2023-05-07T02:28:37;8.02;;;7.30;;
72115;SDS011;59991;52.140;5.428;2023-05-07T02:29:08;7.95;;;7.25;;
72115;SDS011;59991;52.140;5.428;2023-05-07T02:29:39;8.00;;;7.40;;
72115;SDS011;59991;52.140;5.428;2023-05-07T02:30:11;8.13;;;7.47;;
72115;SDS011;59991;52.140;5.428;2023-05-07T02:30:43;7.68;;;6.97;;
72115;SDS011;59991;52.140;5.428;2023-05-07T02:31:15;7.47;;;6.87;;
72115;SDS011;59991;52.140;5.428;2023-05-07T02:31:46;7.00;;;6.35;;
72115;SDS011;59991;52.140;5.428;2023-05-07T02:32:21;8.60;;;7.82;;
72115;SDS011;59991;52.140;5.428;2023-05-07T02:32:54;8.57;;;7.88;;
72115;SDS011;59991;52.140;5.428;2023-05-07T02:33:26;8.00;;;7.40;;
72115;SDS011;59991;52.140;5.428;2023-05-07T02:33:57;8.30;;;7.32;;
72115;SDS011;59991;52.140;5.428;2023-05-07T02:34:29;7.97;;;7.25;;
72115;SDS011;59991;52.140;5.428;2023-05-07T02:35:00;7.75;;;7.10;;
72115;SDS011;59991;52.140;5.428;2023-05-07T02:35:32;8.60;;;7.90;;
72115;SDS011;59991;52.140;5.428;2023-05-07T02:36:09;8.25;;;7.45;;
72115;SDS011;59991;52.140;5.428;2023-05-07T02:36:41;7.50;;;6.90;;
72115;SDS011;59991;52.140;5.428;2023-05-07T02:37:13;7.72;;;7.05;;
72115;SDS011;59991;52.140;5.428;2023-05-07T02:37:44;8.25;;;7.40;;
72115;SDS011;59991;52.140;5.428;2023-05-07T02:38:16;7.72;;;7.00;;
72115;SDS011;59991;52.140;5.428;2023-05-07T02:38:47;8.93;;;7.07;;
72115;SDS011;59991;52.140;5.428;2023-05-07T02:39:19;7.90;;;7.28;;
72115;SDS011;59991;52.140;5.428;2023-05-07T02:39:50;8.35;;;7.60;;
72115;SDS011;59991;52.140;5.428;2023-05-07T02:40:22;8.40;;;7.70;;
72115;SDS011;59991;52.140;5.428;2023-05-07T02:40:53;8.80;;;8.00;;
72115;SDS011;59991;52.140;5.428;2023-05-07T02:41:25;8.82;;;8.02;;
72115;SDS011;59991;52.140;5.428;2023-05-07T02:41:56;8.03;;;7.43;;
72115;SDS011;59991;52.140;5.428;2023-05-07T02:42:28;7.93;;;7.43;;
72115;SDS011;59991;52.140;5.428;2023-05-07T02:42:59;8.25;;;7.57;;
72115;SDS011;59991;52.140;5.428;2023-05-07T02:43:31;8.77;;;7.70;;
72115;SDS011;59991;52.140;5.428;2023-05-07T02:44:02;10.23;;;7.70;;
72115;SDS011;59991;52.140;5.428;2023-05-07T02:44:34;9.13;;;8.30;;
72115;SDS011;59991;52.140;5.428;2023-05-07T02:45:06;8.25;;;7.65;;
72115;SDS011;59991;52.140;5.428;2023-05-07T02:45:38;8.68;;;7.93;;
72115;SDS011;59991;52.140;5.428;2023-05-07T02:46:10;9.02;;;8.10;;
72115;SDS011;59991;52.140;5.428;2023-05-07T02:46:41;8.73;;;7.93;;
72115;SDS011;59991;52.140;5.428;2023-05-07T02:47:13;8.40;;;7.70;;
72115;SDS011;59991;52.140;5.428;2023-05-07T02:47:46;8.85;;;8.13;;
72115;SDS011;59991;52.140;5.428;2023-05-07T02:48:18;9.32;;;8.48;;
72115;SDS011;59991;52.140;5.428;2023-05-07T02:48:49;8.63;;;7.93;;
72115;SDS011;59991;52.140;5.428;2023-05-07T02:49:21;9.43;;;8.35;;
72115;SDS011;59991;52.140;5.428;2023-05-07T02:49:53;8.90;;;8.07;;
72115;SDS011;59991;52.140;5.428;2023-05-07T02:50:24;9.00;;;8.18;;
72115;SDS011;59991;52.140;5.428;2023-05-07T02:50:58;8.73;;;7.95;;
72115;SDS011;59991;52.140;5.428;2023-05-07T02:51:30;8.57;;;7.70;;
72115;SDS011;59991;52.140;5.428;2023-05-07T02:52:02;8.55;;;7.82;;
72115;SDS011;59991;52.140;5.428;2023-05-07T02:52:38;9.30;;;8.47;;
72115;SDS011;59991;52.140;5.428;2023-05-07T02:53:09;10.48;;;8.27;;
72115;SDS011;59991;52.140;5.428;2023-05-07T02:53:41;7.95;;;7.35;;
72115;SDS011;59991;52.140;5.428;2023-05-07T02:54:12;9.45;;;8.65;;
72115;SDS011;59991;52.140;5.428;2023-05-07T02:54:44;8.10;;;7.50;;
72115;SDS011;59991;52.140;5.428;2023-05-07T02:55:15;8.57;;;7.85;;
72115;SDS011;59991;52.140;5.428;2023-05-07T02:55:47;8.43;;;7.72;;
72115;SDS011;59991;52.140;5.428;2023-05-07T02:56:18;8.43;;;7.68;;
72115;SDS011;59991;52.140;5.428;2023-05-07T02:56:50;9.18;;;8.38;;
72115;SDS011;59991;52.140;5.428;2023-05-07T02:57:21;9.07;;;8.13;;
72115;SDS011;59991;52.140;5.428;2023-05-07T02:57:52;9.37;;;8.20;;
72115;SDS011;59991;52.140;5.428;2023-05-07T02:58:24;10.75;;;8.13;;
72115;SDS011;59991;52.140;5.428;2023-05-07T02:58:55;9.02;;;8.32;;
72115;SDS011;59991;52.140;5.428;2023-05-07T02:59:27;9.50;;;8.60;;
72115;SDS011;59991;52.140;5.428;2023-05-07T02:59:59;8.98;;;8.18;;
72115;SDS011;59991;52.140;5.428;2023-05-07T03:00:30;9.32;;;8.20;;
72115;SDS011;59991;52.140;5.428;2023-05-07T03:01:02;8.70;;;7.97;;
72115;SDS011;59991;52.140;5.428;2023-05-07T03:01:33;8.25;;;7.68;;
72115;SDS011;59991;52.140;5.428;2023-05-07T03:02:05;9.40;;;8.52;;
72115;SDS011;59991;52.140;5.428;2023-05-07T03:02:36;8.35;;;7.60;;
72115;SDS011;59991;52.140;5.428;2023-05-07T03:03:08;9.10;;;8.30;;
72115;SDS011;59991;52.140;5.428;2023-05-07T03:03:39;9.15;;;8.23;;
72115;SDS011;59991;52.140;5.428;2023-05-07T03:04:11;9.27;;;7.93;;
72115;SDS011;59991;52.140;5.428;2023-05-07T03:04:42;8.75;;;8.15;;
72115;SDS011;59991;52.140;5.428;2023-05-07T03:05:14;9.93;;;8.55;;
72115;SDS011;59991;52.140;5.428;2023-05-07T03:05:46;11.93;;;8.75;;
72115;SDS011;59991;52.140;5.428;2023-05-07T03:06:17;9.48;;;8.68;;
72115;SDS011;59991;52.140;5.428;2023-05-07T03:06:49;9.73;;;8.20;;
72115;SDS011;59991;52.140;5.428;2023-05-07T03:07:20;8.90;;;8.00;;
72115;SDS011;59991;52.140;5.428;2023-05-07T03:07:51;9.05;;;8.32;;
72115;SDS011;59991;52.140;5.428;2023-05-07T03:08:23;9.50;;;8.50;;
72115;SDS011;59991;52.140;5.428;2023-05-07T03:08:55;9.23;;;8.32;;
72115;SDS011;59991;52.140;5.428;2023-05-07T03:09:27;10.00;;;9.00;;
72115;SDS011;59991;52.140;5.428;2023-05-07T03:09:58;9.13;;;8.27;;
72115;SDS011;59991;52.140;5.428;2023-05-07T03:10:30;8.52;;;7.68;;
72115;SDS011;59991;52.140;5.428;2023-05-07T03:11:01;8.48;;;7.55;;
72115;SDS011;59991;52.140;5.428;2023-05-07T03:11:33;8.77;;;7.88;;
72115;SDS011;59991;52.140;5.428;2023-05-07T03:12:05;9.13;;;8.43;;
72115;SDS011;59991;52.140;5.428;2023-05-07T03:12:36;8.68;;;7.78;;
72115;SDS011;59991;52.140;5.428;2023-05-07T03:13:08;9.68;;;8.10;;
72115;SDS011;59991;52.140;5.428;2023-05-07T03:13:40;10.00;;;7.73;;